createdAt,value
2023-02-14T00:04:01.997Z,98130.19
2023-02-14T00:09:05.291Z,98168.19
2023-02-14T00:14:26.346Z,98169.03
2023-02-14T00:19:28.641Z,98172.34
2023-02-14T00:24:30.749Z,98174.06
2023-02-14T00:29:33.444Z,98158.38
2023-02-14T00:34:37.018Z,98176.56
2023-02-14T00:39:39.116Z,98187.81
2023-02-14T00:44:41.474Z,98144.31
2023-02-14T00:49:43.664Z,98164.34
2023-02-14T00:54:45.813Z,98142.69
2023-02-14T00:59:49.332Z,98147.91
2023-02-14T01:04:51.474Z,98189.56
2023-02-14T01:09:53.647Z,98161.75
2023-02-14T01:14:56.129Z,98187.03
2023-02-14T01:19:58.311Z,98187.03
2023-02-14T01:25:00.664Z,98030.72
2023-02-14T01:30:06.145Z,98182.44
2023-02-14T01:35:09.732Z,98191.31
2023-02-14T01:40:13.613Z,98195.56
2023-02-14T01:45:21.060Z,98197.31
2023-02-14T01:50:29.392Z,98192.03
2023-02-14T01:55:39.490Z,98182.41
2023-02-14T02:00:59.002Z,98168.47
2023-02-14T02:06:48.040Z,98212.81
2023-02-14T02:11:50.248Z,98228.97
2023-02-14T02:17:12.062Z,98212.53
2023-02-14T02:22:35.606Z,98229.06
2023-02-14T02:28:14.958Z,98188.25
2023-02-14T02:33:56.758Z,98209.94
2023-02-14T02:39:05.329Z,98224.63
2023-02-14T02:44:35.406Z,98239.34
2023-02-14T02:50:23.275Z,98231.63
2023-02-14T02:56:06.931Z,98169.06
2023-02-14T03:01:13.972Z,98234.06
2023-02-14T03:06:16.206Z,98190.47
2023-02-14T03:11:21.178Z,98188.81
2023-02-14T03:16:35.270Z,98216.56
2023-02-14T03:21:52.651Z,98247.84
2023-02-14T03:27:17.302Z,98239.34
2023-02-14T03:32:29.621Z,98237.38
2023-02-14T03:37:47.744Z,98230.41
2023-02-14T03:42:53.777Z,98261.59
2023-02-14T03:47:58.974Z,98244.19
2023-02-14T03:53:01.890Z,98229.28
2023-02-14T03:58:08.544Z,98249.09
2023-02-14T04:03:12.651Z,98259.31
2023-02-14T04:08:25.466Z,98289.63
2023-02-14T04:13:28.182Z,98295.63
2023-02-14T04:18:48.687Z,98286.75
2023-02-14T04:23:50.853Z,98297.09
2023-02-14T04:28:52.986Z,98315.09
2023-02-14T04:33:55.247Z,98270.72
2023-02-14T04:38:57.409Z,98321.66
2023-02-14T04:43:59.524Z,98331.97
2023-02-14T04:49:01.774Z,98297.09
2023-02-14T04:54:03.890Z,98339.44
2023-02-14T04:59:06.400Z,98330.00
2023-02-14T05:04:08.942Z,98354.13
2023-02-14T05:09:11.112Z,98359.25
2023-02-14T05:14:14.125Z,98364.41
2023-02-14T05:19:16.419Z,98349.59
2023-02-14T05:24:18.904Z,98358.34
2023-02-14T05:29:21.083Z,98323.50
2023-02-14T05:34:23.258Z,98380.00
2023-02-14T05:39:25.494Z,98324.38
2023-02-14T05:44:27.649Z,98383.56
2023-02-14T05:49:29.811Z,98384.50
2023-02-14T05:54:31.996Z,98361.94
2023-02-14T05:59:34.196Z,98380.03
2023-02-14T06:04:36.440Z,98374.06
2023-02-14T06:09:38.660Z,98396.69
2023-02-14T06:14:43.086Z,98394.94
2023-02-14T06:19:45.229Z,98398.44
2023-02-14T06:24:47.400Z,98383.88
2023-02-14T06:29:49.840Z,98404.72
2023-02-14T06:34:52.016Z,98389.22
2023-02-14T06:39:54.187Z,98376.03
2023-02-14T06:44:56.339Z,98394.25
2023-02-14T06:50:00.217Z,98388.25
2023-02-14T06:55:02.602Z,98395.78
2023-02-14T07:00:06.745Z,98399.13
2023-02-14T07:05:09.162Z,98433.97
2023-02-14T07:10:11.844Z,98407.91
2023-02-14T07:15:14.798Z,98400.09
2023-02-14T07:20:18.478Z,98431.34
2023-02-14T07:25:20.924Z,98442.69
2023-02-14T07:30:23.263Z,98460.00
2023-02-14T07:35:25.668Z,98416.41
2023-02-14T07:40:30.086Z,98416.44
2023-02-14T07:45:32.250Z,98439.13
2023-02-14T07:50:34.477Z,98453.69
2023-02-14T07:55:36.858Z,98483.34
2023-02-14T08:00:39.077Z,98486.63
2023-02-14T08:05:41.973Z,98493.72
2023-02-14T08:10:44.171Z,98456.94
2023-02-14T08:16:04.900Z,98510.88
2023-02-14T08:21:09.476Z,98497.53
2023-02-14T08:26:11.689Z,98528.69
2023-02-14T08:31:35.811Z,98526.91
2023-02-14T08:36:38.685Z,98560.56
2023-02-14T08:41:40.870Z,98566.56
2023-02-14T08:46:43.165Z,98516.94
2023-02-14T08:51:45.429Z,98554.91
2023-02-14T08:56:47.772Z,98570.50
2023-02-14T09:01:49.942Z,98577.53
2023-02-14T09:06:52.175Z,98544.38
2023-02-14T09:11:57.538Z,98561.03
2023-02-14T09:17:01.771Z,98554.91
2023-02-14T09:22:08.563Z,98617.66
2023-02-14T09:27:11.208Z,98573.31
2023-02-14T09:32:13.461Z,98598.31
2023-02-14T09:37:35.169Z,98621.03
2023-02-14T09:42:51.976Z,98625.38
2023-02-14T09:47:58.924Z,98602.56
2023-02-14T09:53:32.086Z,98610.72
2023-02-14T09:58:46.887Z,98648.75
2023-02-14T10:04:10.500Z,98661.78
2023-02-14T10:09:41.972Z,98661.78
2023-02-14T10:14:46.629Z,98636.06
2023-02-14T10:19:55.404Z,98682.25
2023-02-14T10:25:08.007Z,98642.97
2023-02-14T10:30:21.778Z,98695.25
2023-02-14T10:35:54.324Z,98688.94
2023-02-14T10:41:22.770Z,98702.69
2023-02-14T10:46:34.486Z,98712.13
2023-02-14T10:51:49.831Z,98718.06
2023-02-14T10:57:27.534Z,98737.09
2023-02-14T11:02:41.648Z,98717.97
2023-02-14T11:07:44.943Z,98696.28
2023-02-14T11:12:47.208Z,98710.13
2023-02-14T11:17:49.650Z,98744.25
2023-02-14T11:22:51.915Z,98724.97
2023-02-14T11:28:01.384Z,98714.59
2023-02-14T11:33:04.994Z,98728.81
2023-02-14T11:38:40.284Z,98743.22
2023-02-14T11:43:44.843Z,98742.38
2023-02-14T11:49:07.578Z,98754.91
2023-02-14T11:54:14.690Z,98716.31
2023-02-14T11:59:28.853Z,98776.41
2023-02-14T12:04:45.646Z,98777.75
2023-02-14T12:09:49.687Z,98732.44
2023-02-14T12:14:51.937Z,98750.59
2023-02-14T12:20:16.234Z,98811.59
2023-02-14T12:25:46.073Z,98811.69
2023-02-14T12:30:49.812Z,98755.38
2023-02-14T12:35:58.016Z,98835.22
2023-02-14T12:41:09.991Z,98791.28
2023-02-14T12:46:33.792Z,98857.44
2023-02-14T12:51:58.460Z,98864.19
2023-02-14T12:57:42.512Z,98863.34
2023-02-14T13:03:09.888Z,98893.25
2023-02-14T13:08:15.122Z,98883.63
2023-02-14T13:13:27.743Z,98899.16
2023-02-14T13:18:37.725Z,98902.34
2023-02-14T13:23:40.969Z,98912.50
2023-02-14T13:29:05.392Z,98895.44
2023-02-14T13:34:15.573Z,98944.00
2023-02-14T13:39:32.032Z,98909.63
2023-02-14T13:44:43.221Z,98943.31
2023-02-14T13:49:51.960Z,98960.69
2023-02-14T13:55:01.783Z,98993.66
2023-02-14T14:00:17.430Z,98996.19
2023-02-14T14:05:39.816Z,99013.22
2023-02-14T14:10:55.876Z,98967.31
2023-02-14T14:16:35.219Z,99023.25
2023-02-14T14:21:39.445Z,98988.69
2023-02-14T14:26:56.802Z,99043.69
2023-02-14T14:31:59.095Z,99044.88
2023-02-14T14:37:21.106Z,99056.25
2023-02-14T14:42:25.222Z,99046.84
2023-02-14T14:47:47.871Z,99085.19
2023-02-14T14:52:52.070Z,99071.50
2023-02-14T14:58:00.516Z,98961.13
2023-02-14T15:03:23.975Z,99114.94
2023-02-14T15:08:31.070Z,99112.00
2023-02-14T15:13:58.543Z,99121.59
2023-02-14T15:19:09.824Z,99128.97
2023-02-14T15:24:17.589Z,99120.16
2023-02-14T15:29:26.188Z,99059.50
2023-02-14T15:34:31.944Z,99139.91
2023-02-14T15:39:37.951Z,99150.53
2023-02-14T15:44:40.102Z,99168.06
2023-02-14T15:49:44.093Z,99140.56
2023-02-14T15:54:47.650Z,99184.31
2023-02-14T15:59:49.962Z,99142.31
2023-02-14T16:04:52.076Z,99141.16
2023-02-14T16:10:32.585Z,99204.22
2023-02-14T16:15:39.428Z,99146.34
2023-02-14T16:20:45.575Z,99222.03
2023-02-14T16:25:48.123Z,99166.78
2023-02-14T16:30:58.316Z,99222.84
2023-02-14T16:36:06.623Z,99228.00
2023-02-14T16:41:17.119Z,99230.56
2023-02-14T16:46:22.202Z,99242.44
2023-02-14T16:51:29.106Z,99232.75
2023-02-14T16:56:42.758Z,99215.44
2023-02-14T17:01:45.158Z,99191.06
2023-02-14T17:06:51.774Z,99274.84
2023-02-14T17:11:57.124Z,99172.03
2023-02-14T17:17:00.091Z,99234.97
2023-02-14T17:22:03.990Z,99303.75
2023-02-14T17:27:08.083Z,99267.91
2023-02-14T17:32:14.092Z,99263.09
2023-02-14T17:37:19.121Z,99301.94
2023-02-14T17:42:21.923Z,99283.09
2023-02-14T17:47:24.130Z,99274.19
2023-02-14T17:52:28.769Z,99288.03
2023-02-14T17:57:30.975Z,99324.66
2023-02-14T18:02:33.291Z,99337.25
2023-02-14T18:07:36.024Z,99319.47
2023-02-14T18:12:38.333Z,99335.47
2023-02-14T18:17:40.525Z,99328.78
2023-02-14T18:22:42.978Z,99333.88
2023-02-14T18:27:45.192Z,99338.09
2023-02-14T18:32:48.340Z,99363.47
2023-02-14T18:37:50.511Z,99347.13
2023-02-14T18:42:52.977Z,99359.25
2023-02-14T18:47:55.297Z,99365.16
2023-02-14T18:52:57.459Z,99368.31
2023-02-14T18:57:59.646Z,99396.75
2023-02-14T19:03:02.001Z,99361.56
2023-02-14T19:08:05.960Z,99397.56
2023-02-14T19:13:08.154Z,99356.94
2023-02-14T19:18:31.676Z,99357.84
2023-02-14T19:23:39.206Z,99375.50
2023-02-14T19:28:42.172Z,99403.47
2023-02-14T19:33:46.045Z,99395.00
2023-02-14T19:38:51.501Z,99441.31
2023-02-14T19:43:57.188Z,99455.75
2023-02-14T19:48:59.786Z,99457.94
2023-02-14T19:54:05.816Z,99432.59
2023-02-14T19:59:09.381Z,99427.59
2023-02-14T20:04:14.959Z,99441.38
2023-02-14T20:09:18.130Z,99486.53
2023-02-14T20:14:29.389Z,99489.38
2023-02-14T20:19:33.865Z,99492.63
2023-02-14T20:24:36.137Z,99494.22
2023-02-14T20:29:39.903Z,99431.56
2023-02-14T20:34:43.230Z,99510.78
2023-02-14T20:39:45.436Z,99489.72
2023-02-14T20:44:50.722Z,99479.19
2023-02-14T20:49:52.864Z,99444.34
2023-02-14T20:54:55.023Z,99510.25
2023-02-14T20:59:57.127Z,99488.75
2023-02-14T21:05:00.453Z,99482.22
2023-02-14T21:10:07.503Z,99520.78
2023-02-14T21:15:11.556Z,99504.72
2023-02-14T21:20:15.340Z,99547.78
2023-02-14T21:25:17.512Z,99552.56
2023-02-14T21:30:19.896Z,99531.16
2023-02-14T21:35:22.190Z,99576.69
2023-02-14T21:40:27.292Z,99581.69
2023-02-14T21:45:55.686Z,99568.38
2023-02-14T21:50:58.067Z,99532.84
2023-02-14T21:56:09.802Z,99594.09
2023-02-14T22:01:20.344Z,99596.81
2023-02-14T22:06:26.554Z,99593.88
2023-02-14T22:11:29.297Z,99579.63
2023-02-14T22:16:31.628Z,99543.19
2023-02-14T22:21:34.119Z,99598.53
2023-02-14T22:26:41.106Z,99611.41
2023-02-14T22:31:44.048Z,99623.59
2023-02-14T22:36:46.446Z,99605.13
2023-02-14T22:41:49.492Z,99599.78
2023-02-14T22:46:51.786Z,99591.84
2023-02-14T22:51:54.157Z,99610.19
2023-02-14T22:56:56.421Z,99616.84
2023-02-14T23:01:58.643Z,99614.22
2023-02-14T23:07:01.088Z,99645.81
2023-02-14T23:12:28.174Z,99613.88
2023-02-14T23:17:52.590Z,99654.00
2023-02-14T23:22:54.957Z,99607.38
2023-02-14T23:28:15.556Z,99623.88
2023-02-14T23:33:18.525Z,99651.38
2023-02-14T23:38:21.050Z,99613.56
2023-02-14T23:43:23.298Z,99643.28
2023-02-14T23:48:25.497Z,99583.03
2023-02-14T23:53:27.639Z,99659.38
2023-02-14T23:58:29.826Z,99668.09
